Terminal Aerodrome Forecast
Issued by NWS

Home | Current Version | Previous Version | Text Only | Print | Product List | Glossary Off
Versions: 1 2 3 4 5 6 7 8 9 10 11 12 13 14 15 16 17 18

000
FTUS43 KGRB 302330
TAFATW
TAF
KATW 302330Z 3100/3124 20008KT P6SM SKC
     FM310400 VRB03KT 5SM BR SKC
      TEMPO 3106/3110 2SM BR SCT003
     FM311000 VRB03KT 3SM BR SCT003
      TEMPO 3110/3114 1SM BR BKN003
     FM311400 22005KT P6SM BKN020
     FM311600 21007KT P6SM SCT025 SCT200=

USA.gov is the U.S. government's official web portal to all federal, state and local government web resources and services.